Time;durP1;ratioP1;P1;durP2;ratioP2;P2;SDS_P1;SDS_P2;PMS_P1;PMS_P2;Temp;Humidity;BMP_temperature;BMP_pressure;BME280_temperature;BME280_humidity;BME280_pressure;Samples;Min_cycle;Max_cycle;Signal;HPM_P1;HPM_P2
2022/06/17 00:01:55;;;;;;;3.85;1.23;;;17.40;83.20;;;;;;5061309;28;20036;-74
2022/06/17 00:04:22;;;;;;;2.08;1.13;;;17.40;83.10;;;;;;5027763;28;20037;-75
2022/06/17 00:07:04;;;;;;;4.03;0.90;;;17.30;83.20;;;;;;5061341;28;20411;-74
2022/06/17 00:09:33;;;;;;;3.15;0.90;;;17.40;83.60;;;;;;5062915;28;20028;-74
2022/06/17 00:12:00;;;;;;;2.25;1.20;;;17.30;83.50;;;;;;5059831;28;20033;-74
2022/06/17 00:15:11;;;;;;;2.67;0.90;;;17.30;83.50;;;;;;5060473;28;20503;-74
2022/06/17 00:17:22;;;;;;;2.20;1.02;;;17.30;83.60;;;;;;5053519;28;20032;-73
2022/06/17 00:19:49;;;;;;;2.97;1.10;;;17.30;83.70;;;;;;5026848;28;20063;-74
2022/06/17 00:22:15;;;;;;;2.65;0.93;;;17.30;83.70;;;;;;5063498;28;20041;-74
2022/06/17 00:24:41;;;;;;;2.47;1.20;;;17.20;83.70;;;;;;5031296;28;20488;-74
2022/06/17 00:27:10;;;;;;;3.00;1.10;;;17.20;83.80;;;;;;5056341;28;21410;-73
2022/06/17 00:29:37;;;;;;;2.10;0.90;;;17.20;84.10;;;;;;5061082;28;20029;-74
2022/06/17 00:32:04;;;;;;;2.15;0.90;;;17.20;84.00;;;;;;5059410;28;20037;-74
2022/06/17 00:34:31;;;;;;;3.50;0.95;;;17.10;84.00;;;;;;5082229;28;20037;-76
2022/06/17 00:37:00;;;;;;;2.83;1.35;;;17.10;84.20;;;;;;5043023;28;20633;-74
2022/06/17 00:39:29;;;;;;;2.58;0.95;;;17.20;84.50;;;;;;5058049;28;20494;-74
2022/06/17 00:42:03;;;;;;;2.50;0.77;;;17.10;84.50;;;;;;5061038;28;20072;-74
2022/06/17 00:44:47;;;;;;;2.05;1.00;;;17.10;84.70;;;;;;5062268;28;20032;-74
2022/06/17 00:47:26;;;;;;;2.25;0.75;;;17.10;84.90;;;;;;5056621;28;20043;-74
2022/06/17 00:50:13;;;;;;;2.55;0.82;;;17.10;84.90;;;;;;5059699;28;20020;-74
2022/06/17 00:53:05;;;;;;;2.40;0.70;;;17.20;84.80;;;;;;5059864;28;20028;-74
2022/06/17 00:56:03;;;;;;;3.00;0.85;;;17.20;84.70;;;;;;5058470;28;20043;-75
2022/06/17 00:58:51;;;;;;;3.42;0.80;;;17.20;84.90;;;;;;5062806;28;20040;-74
2022/06/17 01:01:18;;;;;;;1.70;0.82;;;17.20;84.70;;;;;;5049327;28;20142;-75
2022/06/17 01:03:48;;;;;;;2.45;0.90;;;17.30;85.00;;;;;;5032079;28;20028;-75
2022/06/17 01:06:18;;;;;;;3.88;1.23;;;17.30;85.20;;;;;;5032302;28;20039;-74
2022/06/17 01:11:43;;;;;;;2.60;1.45;;;17.30;85.30;;;;;;5042112;28;20024;-75
2022/06/17 01:14:14;;;;;;;3.15;1.48;;;17.40;85.30;;;;;;5044594;28;20392;-75
2022/06/17 01:16:43;;;;;;;3.25;1.38;;;17.40;85.80;;;;;;5074625;28;20016;-74
2022/06/17 01:19:40;;;;;;;2.25;0.85;;;17.40;85.90;;;;;;5070578;28;20504;-74
2022/06/17 01:22:25;;;;;;;3.10;1.50;;;17.40;86.00;;;;;;5060550;28;20036;-75
2022/06/17 01:25:11;;;;;;;2.60;1.30;;;17.40;86.20;;;;;;5041524;28;20090;-75
2022/06/17 01:27:41;;;;;;;2.92;1.58;;;17.40;86.20;;;;;;5071032;28;20025;-75
2022/06/17 01:30:17;;;;;;;3.10;1.58;;;17.40;86.40;;;;;;5056217;28;20361;-75
2022/06/17 01:32:56;;;;;;;4.53;1.70;;;17.50;86.70;;;;;;5031653;28;20052;-76
2022/06/17 01:35:25;;;;;;;3.58;1.60;;;17.50;87.00;;;;;;5072729;28;20067;-76
2022/06/17 01:37:52;;;;;;;2.67;0.98;;;17.40;86.90;;;;;;5058815;28;20040;-76
2022/06/17 01:40:20;;;;;;;3.88;1.60;;;17.40;87.00;;;;;;5071471;28;20041;-76
2022/06/17 01:42:48;;;;;;;2.22;1.20;;;17.50;87.10;;;;;;5083462;28;20495;-76
2022/06/17 01:45:15;;;;;;;3.70;1.50;;;17.50;87.30;;;;;;5086946;28;20044;-76
2022/06/17 01:47:44;;;;;;;3.42;1.40;;;17.50;87.70;;;;;;5066229;28;20036;-76
2022/06/17 01:50:18;;;;;;;3.40;1.20;;;17.40;87.90;;;;;;5065659;28;20036;-76
2022/06/17 01:53:03;;;;;;;2.78;1.15;;;17.30;87.90;;;;;;5080291;28;20044;-76
2022/06/17 01:55:41;;;;;;;3.30;1.15;;;17.30;88.20;;;;;;5088814;28;20511;-76
2022/06/17 01:58:18;;;;;;;2.67;1.20;;;17.30;88.10;;;;;;5063407;28;20036;-76
2022/06/17 02:00:44;;;;;;;4.13;1.10;;;17.20;88.40;;;;;;5072562;28;20028;-76
2022/06/17 02:03:18;;;;;;;6.28;1.40;;;17.20;88.50;;;;;;5075122;28;20036;-76
2022/06/17 02:05:50;;;;;;;2.47;1.55;;;17.10;88.90;;;;;;5065865;28;21116;-76
2022/06/17 02:08:18;;;;;;;3.08;1.60;;;17.00;88.90;;;;;;5066602;28;20032;-76
2022/06/17 02:10:49;;;;;;;3.30;1.58;;;17.00;89.10;;;;;;5069475;28;20029;-76
2022/06/17 02:13:16;;;;;;;4.18;1.30;;;17.00;89.20;;;;;;5084363;28;20380;-76
2022/06/17 02:16:10;;;;;;;2.72;1.45;;;17.00;89.30;;;;;;5076293;28;20534;-76
2022/06/17 02:18:54;;;;;;;3.17;1.50;;;17.00;89.40;;;;;;5062621;28;20044;-76
2022/06/17 02:21:33;;;;;;;3.65;1.45;;;16.90;89.60;;;;;;5050163;28;20036;-75
2022/06/17 02:24:02;;;;;;;2.63;1.30;;;16.90;89.60;;;;;;5051440;28;20376;-75
2022/06/17 02:26:33;;;;;;;3.13;1.77;;;16.90;89.50;;;;;;5038548;28;20048;-75
2022/06/17 02:29:04;;;;;;;2.40;1.20;;;16.90;89.80;;;;;;5080835;28;20387;-75
2022/06/17 02:31:33;;;;;;;2.80;1.10;;;16.90;89.90;;;;;;5065270;28;20044;-75
2022/06/17 02:34:00;;;;;;;4.82;1.70;;;16.90;89.80;;;;;;5086522;28;20357;-75
2022/06/17 02:36:34;;;;;;;2.00;1.40;;;16.90;90.00;;;;;;5069824;28;20041;-75
2022/06/17 02:39:01;;;;;;;3.38;1.42;;;16.90;90.10;;;;;;5081184;28;20048;-75
2022/06/17 02:41:29;;;;;;;3.25;1.70;;;17.00;90.20;;;;;;5068129;28;20035;-75
2022/06/17 02:44:06;;;;;;;2.75;1.83;;;17.00;90.30;;;;;;5030762;28;20055;-74
2022/06/17 02:46:39;;;;;;;2.63;1.75;;;17.00;90.70;;;;;;5045526;28;20036;-75
2022/06/17 02:49:19;;;;;;;3.22;1.50;;;17.00;90.60;;;;;;5027736;28;20049;-75
2022/06/17 02:51:46;;;;;;;4.50;2.25;;;17.00;90.60;;;;;;5077448;28;20040;-75
2022/06/17 02:54:25;;;;;;;3.28;1.83;;;17.00;90.70;;;;;;5051868;28;20053;-76
2022/06/17 02:56:55;;;;;;;3.15;1.92;;;17.00;91.00;;;;;;5062162;28;20553;-78
2022/06/17 03:00:04;;;;;;;5.78;2.25;;;16.90;91.10;;;;;;5060001;28;20472;-75
2022/06/17 03:02:41;;;;;;;3.22;1.90;;;16.80;91.50;;;;;;5040310;28;20343;-75
2022/06/17 03:05:26;;;;;;;4.85;1.88;;;16.80;91.50;;;;;;5059823;28;20044;-75
2022/06/17 03:07:59;;;;;;;3.60;1.63;;;16.70;91.60;;;;;;5049148;28;20036;-75
2022/06/17 03:10:41;;;;;;;3.70;1.90;;;16.70;91.70;;;;;;5045912;28;20040;-75
2022/06/17 03:13:35;;;;;;;2.25;1.60;;;16.60;91.80;;;;;;5079181;28;20020;-75
2022/06/17 03:16:06;;;;;;;4.10;1.90;;;16.60;91.80;;;;;;5080859;28;20035;-75
2022/06/17 03:18:34;;;;;;;3.15;1.70;;;16.50;91.80;;;;;;5072782;28;20040;-75
2022/06/17 03:21:06;;;;;;;3.28;1.92;;;16.50;91.90;;;;;;5060058;28;20037;-75
2022/06/17 03:24:03;;;;;;;3.88;1.90;;;16.50;92.00;;;;;;5059775;28;20036;-75
2022/06/17 03:26:37;;;;;;;3.22;1.90;;;16.40;92.20;;;;;;5057364;28;20040;-75
2022/06/17 03:29:07;;;;;;;2.85;1.60;;;16.40;92.20;;;;;;5028207;28;20047;-75
2022/06/17 03:32:06;;;;;;;4.85;1.80;;;16.30;92.30;;;;;;5059959;28;20048;-75
2022/06/17 03:34:54;;;;;;;3.65;1.88;;;16.30;92.60;;;;;;5056709;28;20036;-75
2022/06/17 03:37:50;;;;;;;2.83;1.27;;;16.30;92.90;;;;;;5060265;28;20949;-75
2022/06/17 03:40:37;;;;;;;4.50;2.13;;;16.30;92.80;;;;;;5059332;28;20029;-75
2022/06/17 03:43:20;;;;;;;3.38;2.10;;;16.20;93.10;;;;;;5058288;28;20036;-75
2022/06/17 03:45:57;;;;;;;;;;;16.20;93.30;;;;;;5083810;28;20069;-75
2022/06/17 03:48:43;;;;;;;4.97;2.10;;;16.20;93.40;;;;;;5059004;28;19916;-75
2022/06/17 03:51:17;;;;;;;3.38;2.08;;;16.20;93.50;;;;;;5081486;28;20032;-75
2022/06/17 03:53:45;;;;;;;3.22;2.28;;;16.20;93.90;;;;;;5058531;28;20380;-75
2022/06/17 03:56:30;;;;;;;4.68;2.33;;;16.20;93.70;;;;;;5080343;28;20368;-75
2022/06/17 03:59:02;;;;;;;4.65;2.03;;;16.30;94.00;;;;;;5048130;28;20033;-75
2022/06/17 04:01:36;;;;;;;3.88;2.40;;;16.30;94.00;;;;;;5065426;28;20059;-75
2022/06/17 04:04:32;;;;;;;4.05;2.50;;;16.40;94.10;;;;;;5059668;28;20032;-75
2022/06/17 04:07:01;;;;;;;3.95;2.28;;;16.50;94.30;;;;;;5074103;28;20045;-75
2022/06/17 04:09:37;;;;;;;;;;;16.60;94.20;;;;;;5048432;28;20032;-75
2022/06/17 04:12:24;;;;;;;3.63;2.45;;;16.80;94.20;;;;;;5044866;28;20288;-75
2022/06/17 04:15:16;;;;;;;4.75;2.40;;;16.90;94.30;;;;;;5059010;28;20047;-75
2022/06/17 04:17:48;;;;;;;5.88;2.90;;;17.00;94.30;;;;;;5060190;28;20431;-75
2022/06/17 04:20:46;;;;;;;4.53;2.92;;;17.20;94.30;;;;;;5056262;28;20507;-75
2022/06/17 04:23:22;;;;;;;5.28;3.13;;;17.30;94.50;;;;;;5061470;28;20503;-75
2022/06/17 04:26:30;;;;;;;4.47;3.22;;;17.40;94.40;;;;;;5064037;28;20511;-75
2022/06/17 04:29:03;;;;;;;5.85;3.42;;;17.50;94.50;;;;;;5037236;28;20375;-75
2022/06/17 04:31:33;;;;;;;5.75;3.30;;;17.60;94.50;;;;;;5051851;28;20037;-75
2022/06/17 04:34:19;;;;;;;4.88;3.38;;;17.60;94.40;;;;;;5043281;28;20037;-75
2022/06/17 04:36:50;;;;;;;5.57;4.05;;;17.70;94.50;;;;;;5018384;28;20470;-76
2022/06/17 04:39:45;;;;;;;5.43;3.25;;;17.80;94.60;;;;;;5070096;28;20475;-75
2022/06/17 04:42:32;;;;;;;8.02;3.53;;;17.90;94.60;;;;;;5063817;28;20032;-75
2022/06/17 04:45:00;;;;;;;5.97;3.22;;;17.90;94.60;;;;;;5072081;28;20041;-75
2022/06/17 04:47:32;;;;;;;6.95;3.80;;;18.00;94.60;;;;;;5041249;28;20049;-75
2022/06/17 04:50:10;;;;;;;4.47;3.38;;;18.00;94.60;;;;;;5048809;28;20043;-75
2022/06/17 04:52:46;;;;;;;3.90;3.15;;;18.00;94.70;;;;;;5061110;28;20107;-75
2022/06/17 04:55:36;;;;;;;5.43;2.50;;;18.10;94.70;;;;;;5053235;28;20373;-75
2022/06/17 04:58:26;;;;;;;3.60;3.08;;;18.10;94.70;;;;;;5066460;28;20041;-75
2022/06/17 05:01:21;;;;;;;6.22;3.42;;;18.10;94.60;;;;;;5069306;28;20053;-76
2022/06/17 05:04:17;;;;;;;4.53;2.80;;;18.10;94.70;;;;;;5055819;28;20124;-76
2022/06/17 05:06:57;;;;;;;9.40;3.58;;;18.20;94.70;;;;;;5049054;28;20048;-76
2022/06/17 05:09:31;;;;;;;6.95;3.22;;;18.20;94.70;;;;;;5059822;28;20047;-76
2022/06/17 05:12:04;;;;;;;6.45;2.60;;;18.20;94.80;;;;;;5056901;28;20044;-76
2022/06/17 05:14:58;;;;;;;6.43;3.72;;;18.20;94.70;;;;;;5063806;28;20307;-76
2022/06/17 05:17:26;;;;;;;4.95;3.03;;;18.20;94.80;;;;;;5041402;28;20041;-75
2022/06/17 05:19:55;;;;;;;5.78;3.05;;;18.30;94.70;;;;;;5065378;28;20036;-76
2022/06/17 05:22:32;;;;;;;7.35;3.53;;;18.30;94.70;;;;;;5056229;28;20047;-76
2022/06/17 05:25:13;;;;;;;4.70;3.20;;;18.40;94.70;;;;;;5078475;28;20495;-75
2022/06/17 05:27:40;;;;;;;5.28;3.20;;;18.50;94.70;;;;;;5044039;28;20036;-76
2022/06/17 05:30:07;;;;;;;9.30;3.92;;;18.60;94.60;;;;;;5042097;28;20033;-75
2022/06/17 05:32:40;;;;;;;6.43;3.33;;;18.70;94.60;;;;;;5055049;28;20048;-76
2022/06/17 05:35:07;;;;;;;5.88;4.78;;;18.70;94.50;;;;;;5045385;28;20033;-76
2022/06/17 05:37:33;;;;;;;14.25;10.75;;;18.60;94.40;;;;;;5080679;28;20043;-76
2022/06/17 05:40:06;;;;;;;7.10;6.40;;;18.60;94.40;;;;;;5038180;28;20032;-76
2022/06/17 05:42:33;;;;;;;4.72;4.22;;;18.60;94.60;;;;;;5078599;28;20033;-75
2022/06/17 05:45:02;;;;;;;6.53;4.05;;;18.50;94.60;;;;;;5060517;28;20025;-75
2022/06/17 05:47:47;;;;;;;5.70;3.28;;;18.60;94.60;;;;;;5030575;28;20028;-75
2022/06/17 05:50:38;;;;;;;6.00;3.65;;;18.90;94.40;;;;;;5052033;28;20041;-76
2022/06/17 05:53:24;;;;;;;5.70;3.58;;;19.40;93.90;;;;;;5055612;28;20059;-76
2022/06/17 05:56:24;;;;;;;5.43;3.88;;;20.00;93.50;;;;;;5057940;28;20033;-76
2022/06/17 05:58:51;;;;;;;6.85;3.70;;;20.40;93.00;;;;;;5063405;28;20036;-76
2022/06/17 06:01:17;;;;;;;29.15;26.83;;;20.90;92.50;;;;;;5014930;28;20048;-77
2022/06/17 06:03:44;;;;;;;34.95;31.85;;;21.40;91.90;;;;;;5064287;28;20136;-76
2022/06/17 06:06:11;;;;;;;25.25;23.13;;;21.70;91.20;;;;;;5047874;28;20511;-76
2022/06/17 06:08:38;;;;;;;10.38;9.30;;;21.80;90.90;;;;;;5057676;28;20500;-76
2022/06/17 06:11:06;;;;;;;6.97;5.38;;;22.00;90.20;;;;;;5030692;28;20036;-76
2022/06/17 06:13:37;;;;;;;6.90;3.97;;;22.30;89.60;;;;;;5074941;28;20043;-75
2022/06/17 06:16:04;;;;;;;3.33;2.80;;;22.50;88.70;;;;;;5061877;28;20136;-75
2022/06/17 06:18:36;;;;;;;4.78;2.58;;;22.80;87.90;;;;;;5055860;28;20041;-75
2022/06/17 06:21:10;;;;;;;5.05;2.58;;;23.00;87.10;;;;;;5074154;28;20033;-75
2022/06/17 06:23:39;;;;;;;5.15;2.47;;;23.20;86.30;;;;;;5080428;28;20036;-75
2022/06/17 06:26:08;;;;;;;5.72;2.00;;;23.20;85.70;;;;;;5060581;28;20033;-75
2022/06/17 06:28:35;;;;;;;3.88;2.30;;;23.20;84.80;;;;;;5034952;28;20033;-75
2022/06/17 06:31:36;;;;;;;6.13;2.63;;;23.20;84.40;;;;;;5060008;28;20041;-76
2022/06/17 06:34:20;;;;;;;3.88;2.28;;;23.30;83.20;;;;;;5071829;28;20365;-75
2022/06/17 06:36:46;;;;;;;3.55;2.20;;;23.20;83.20;;;;;;5058468;28;20048;-75
2022/06/17 06:39:13;;;;;;;4.18;2.30;;;23.10;83.40;;;;;;5066744;28;20048;-75
2022/06/17 06:41:40;;;;;;;3.20;1.77;;;23.00;83.50;;;;;;5018256;28;20055;-75
2022/06/17 06:44:07;;;;;;;4.97;2.40;;;22.90;83.80;;;;;;5033345;28;20044;-75
2022/06/17 06:46:52;;;;;;;2.90;1.63;;;22.90;83.60;;;;;;5059112;28;20052;-75
2022/06/17 06:49:31;;;;;;;4.18;1.60;;;22.90;83.70;;;;;;5046066;28;20052;-75
2022/06/17 06:51:57;;;;;;;4.47;2.08;;;23.20;83.60;;;;;;5062985;28;20044;-76
2022/06/17 06:54:25;;;;;;;2.20;1.20;;;23.60;82.90;;;;;;5048950;28;20056;-75
2022/06/17 06:56:55;;;;;;;4.60;1.80;;;23.90;82.00;;;;;;5027223;28;20108;-76
2022/06/17 06:59:22;;;;;;;4.95;1.73;;;24.10;80.80;;;;;;5043609;28;20056;-77
2022/06/17 07:01:50;;;;;;;5.03;1.25;;;24.30;79.90;;;;;;4990875;28;20064;-76
2022/06/17 07:04:32;;;;;;;1.85;0.90;;;24.40;79.10;;;;;;4997348;28;20054;-76
2022/06/17 07:06:58;;;;;;;3.20;0.80;;;24.30;78.50;;;;;;4954184;28;20046;-76
2022/06/17 07:09:26;;;;;;;2.38;1.10;;;24.30;78.70;;;;;;4991994;28;20042;-76
2022/06/17 07:11:53;;;;;;;2.22;1.00;;;24.30;78.10;;;;;;5006417;28;20438;-76
2022/06/17 07:14:21;;;;;;;4.90;1.13;;;24.30;77.60;;;;;;4969718;28;20039;-76
2022/06/17 07:16:50;;;;;;;3.90;0.93;;;24.30;77.20;;;;;;4990871;28;20061;-76
2022/06/17 07:19:19;;;;;;;2.03;0.70;;;24.40;76.90;;;;;;4977315;28;20397;-76
2022/06/17 07:21:51;;;;;;;2.80;0.80;;;24.50;76.60;;;;;;5002278;28;20057;-76
2022/06/17 07:24:18;;;;;;;;;;;24.70;76.20;;;;;;5011878;28;20038;-76
2022/06/17 07:26:44;;;;;;;3.67;0.80;;;24.70;75.90;;;;;;4973534;28;20478;-76
2022/06/17 07:29:11;;;;;;;3.03;0.90;;;24.80;75.40;;;;;;5008924;28;20042;-75
2022/06/17 07:31:37;;;;;;;3.13;0.98;;;25.00;75.00;;;;;;5020123;28;20128;-76
2022/06/17 07:34:05;;;;;;;2.25;0.70;;;25.00;74.70;;;;;;5062646;28;20098;-76
2022/06/17 07:42:05;;;;;;;3.05;0.73;;;25.10;74.00;;;;;;5077331;28;20045;-76
2022/06/17 07:44:35;;;;;;;1.33;0.60;;;25.10;73.80;;;;;;5064256;28;20040;-76
2022/06/17 07:47:03;;;;;;;1.77;0.70;;;25.10;73.80;;;;;;5058139;28;20051;-76
2022/06/17 07:49:34;;;;;;;3.60;1.33;;;25.10;73.20;;;;;;5023287;28;20052;-76
2022/06/17 07:52:01;;;;;;;3.97;0.60;;;25.20;73.10;;;;;;5063475;28;20036;-76
2022/06/17 07:54:28;;;;;;;2.88;0.80;;;25.40;72.80;;;;;;5059498;28;20040;-76
2022/06/17 07:56:54;;;;;;;1.45;0.68;;;25.50;73.10;;;;;;5034201;28;20033;-76
2022/06/17 07:59:21;;;;;;;2.45;0.70;;;25.60;72.20;;;;;;5059256;28;20029;-77
2022/06/17 08:01:47;;;;;;;3.70;0.80;;;25.80;71.60;;;;;;5062444;28;20027;-76
2022/06/17 08:04:14;;;;;;;2.55;0.80;;;25.90;71.20;;;;;;5060540;28;20040;-75
2022/06/17 08:06:40;;;;;;;2.88;0.70;;;25.90;70.50;;;;;;5055461;28;20033;-76
2022/06/17 08:09:07;;;;;;;1.48;0.60;;;26.00;70.50;;;;;;5061303;28;20033;-75
2022/06/17 08:11:33;;;;;;;2.40;0.98;;;26.10;70.30;;;;;;5049789;28;20044;-75
2022/06/17 08:14:00;;;;;;;2.53;0.82;;;26.20;70.20;;;;;;5061980;28;20048;-75
2022/06/17 08:16:27;;;;;;;1.55;0.60;;;26.40;69.60;;;;;;5060484;28;20039;-75
2022/06/17 08:18:53;;;;;;;2.33;0.75;;;26.50;68.50;;;;;;5074820;28;20037;-76
2022/06/17 08:21:19;;;;;;;3.85;1.00;;;26.60;67.80;;;;;;5060762;28;20044;-76
2022/06/17 08:23:46;;;;;;;2.03;0.70;;;26.60;67.50;;;;;;5060209;28;20032;-76
2022/06/17 08:26:12;;;;;;;3.35;0.85;;;26.70;67.20;;;;;;5060072;28;20051;-75
2022/06/17 08:28:39;;;;;;;3.53;0.88;;;26.70;66.50;;;;;;5061725;28;20033;-76
2022/06/17 08:31:05;;;;;;;1.73;0.60;;;26.90;66.60;;;;;;5057663;28;20033;-76
2022/06/17 08:33:32;;;;;;;2.80;0.70;;;27.00;66.70;;;;;;5060726;28;20045;-77
2022/06/17 08:36:10;;;;;;;2.30;0.70;;;27.10;66.20;;;;;;5047792;28;20040;-76
2022/06/17 08:38:50;;;;;;;2.53;0.80;;;27.20;65.80;;;;;;5072054;28;20036;-77
2022/06/17 08:41:27;;;;;;;3.92;1.00;;;27.30;65.70;;;;;;5071521;28;20045;-76
2022/06/17 08:44:10;;;;;;;2.85;0.70;;;27.40;63.90;;;;;;5078772;28;20024;-77
2022/06/17 08:47:00;;;;;;;2.42;0.70;;;27.40;64.50;;;;;;5061956;28;20044;-77
2022/06/17 08:49:33;;;;;;;5.60;0.98;;;27.60;64.80;;;;;;5034580;28;20039;-77
2022/06/17 08:52:14;;;;;;;2.63;0.80;;;27.80;64.80;;;;;;5059411;28;20036;-77
2022/06/17 08:54:49;;;;;;;2.83;0.90;;;28.00;65.00;;;;;;5062079;28;20033;-78
2022/06/17 08:57:33;;;;;;;1.30;0.53;;;28.20;64.50;;;;;;5061817;28;20036;-77
2022/06/17 09:00:25;;;;;;;2.22;0.80;;;28.30;63.90;;;;;;5043456;28;20048;-76
2022/06/17 09:02:54;;;;;;;2.93;0.90;;;28.50;63.40;;;;;;5080344;28;20045;-77
2022/06/17 09:05:43;;;;;;;4.13;0.80;;;28.60;63.10;;;;;;5060388;28;20273;-76
2022/06/17 09:08:23;;;;;;;2.80;0.73;;;28.70;62.50;;;;;;5055853;28;20033;-76
2022/06/17 09:11:17;;;;;;;2.80;0.98;;;28.80;61.90;;;;;;5061799;28;20032;-76
2022/06/17 09:14:11;;;;;;;1.73;0.95;;;28.90;61.30;;;;;;5062554;28;20506;-77
2022/06/17 09:17:25;;;;;;;2.33;0.65;;;29.00;61.20;;;;;;5039947;28;20029;-77
2022/06/17 09:19:56;;;;;;;4.13;0.88;;;29.10;61.00;;;;;;5037702;28;20052;-77
2022/06/17 09:22:30;;;;;;;2.08;0.80;;;29.20;60.50;;;;;;5074794;28;20040;-76
2022/06/17 09:25:03;;;;;;;3.63;0.80;;;29.30;60.30;;;;;;5059029;28;20051;-77
2022/06/17 09:27:51;;;;;;;2.03;0.88;;;29.40;60.50;;;;;;5057810;28;20095;-77
2022/06/17 09:30:25;;;;;;;2.45;0.73;;;29.60;59.70;;;;;;5061826;28;20040;-77
2022/06/17 09:33:04;;;;;;;3.55;1.10;;;29.70;59.40;;;;;;5076692;28;20060;-78
2022/06/17 09:36:06;;;;;;;2.33;0.70;;;29.80;58.80;;;;;;5059611;28;20029;-77
2022/06/17 09:38:42;;;;;;;2.85;1.00;;;29.80;58.30;;;;;;5045942;28;20036;-77
2022/06/17 09:41:23;;;;;;;3.75;1.02;;;29.80;57.80;;;;;;5062070;28;20024;-77
2022/06/17 09:43:57;;;;;;;3.72;0.68;;;29.80;57.80;;;;;;5058806;28;20048;-77
2022/06/17 09:46:31;;;;;;;3.03;0.60;;;29.90;58.10;;;;;;5059810;28;20033;-76
2022/06/17 09:49:23;;;;;;;6.70;0.60;;;29.90;58.00;;;;;;5056701;28;20029;-77
2022/06/17 09:52:01;;;;;;;4.05;0.90;;;30.10;57.90;;;;;;5075981;28;20032;-77
2022/06/17 09:55:09;;;;;;;2.90;0.70;;;30.30;57.60;;;;;;5065897;28;20471;-77
2022/06/17 09:57:43;;;;;;;3.25;0.70;;;30.30;56.60;;;;;;5058563;28;20773;-78
2022/06/17 10:00:15;;;;;;;2.67;0.98;;;30.30;56.40;;;;;;5081766;28;20024;-78
2022/06/17 10:03:36;;;;;;;2.10;0.80;;;30.30;55.50;;;;;;5062383;28;20032;-78
2022/06/17 10:06:21;;;;;;;3.40;0.93;;;30.20;56.10;;;;;;5007318;28;20041;-78
2022/06/17 10:09:13;;;;;;;2.22;0.80;;;30.30;55.50;;;;;;5050865;28;20488;-78
2022/06/17 10:11:40;;;;;;;;;;;30.30;55.40;;;;;;5046513;28;20021;-77
2022/06/17 10:14:15;;;;;;;1.70;0.70;;;30.50;55.20;;;;;;5058272;28;19915;-76
2022/06/17 10:20:19;;;;;;;2.28;0.70;;;30.60;54.30;;;;;;5058835;28;20044;-76
2022/06/17 10:23:10;;;;;;;1.05;0.60;;;30.70;54.10;;;;;;5040159;28;20045;-76
2022/06/17 10:25:55;;;;;;;1.88;0.73;;;30.70;54.00;;;;;;5066405;28;20048;-76
2022/06/17 10:28:36;;;;;;;3.97;0.80;;;30.90;54.00;;;;;;5058150;28;20033;-75
2022/06/17 10:31:30;;;;;;;4.13;0.63;;;31.00;53.30;;;;;;5049651;28;20032;-76
2022/06/17 10:34:14;;;;;;;2.25;0.77;;;31.10;52.90;;;;;;5067214;28;20063;-76
2022/06/17 10:36:43;;;;;;;3.92;0.90;;;31.20;52.80;;;;;;5059800;28;20029;-76
2022/06/17 10:39:13;;;;;;;1.33;0.70;;;31.40;52.80;;;;;;5061979;28;20025;-75
2022/06/17 10:41:40;;;;;;;4.85;0.80;;;31.60;52.90;;;;;;5059345;28;20035;-76
2022/06/17 10:44:14;;;;;;;2.30;0.82;;;31.80;52.50;;;;;;5057932;28;20476;-76
2022/06/17 10:46:47;;;;;;;3.78;0.70;;;32.10;52.00;;;;;;5062302;28;20423;-76
2022/06/17 10:49:21;;;;;;;3.30;0.70;;;32.40;51.60;;;;;;5060731;28;20040;-78
2022/06/17 10:51:51;;;;;;;3.45;1.00;;;32.60;50.40;;;;;;5061011;28;20017;-78
2022/06/17 10:54:34;;;;;;;2.22;0.60;;;32.70;50.50;;;;;;5062345;28;20396;-76
2022/06/17 10:57:11;;;;;;;2.60;0.70;;;32.90;50.00;;;;;;5046656;28;20041;-76
2022/06/17 10:59:43;;;;;;;1.30;0.50;;;33.00;49.40;;;;;;5063404;28;20029;-76
2022/06/17 11:02:32;;;;;;;2.13;0.77;;;33.20;49.20;;;;;;5030205;28;20052;-77
2022/06/17 11:05:03;;;;;;;4.68;1.52;;;33.40;48.10;;;;;;5056462;28;20143;-76
2022/06/17 11:07:36;;;;;;;5.85;1.40;;;33.60;47.70;;;;;;5052695;28;20476;-76
2022/06/17 11:10:24;;;;;;;3.13;0.82;;;33.90;47.40;;;;;;5063982;28;20025;-77
2022/06/17 11:13:06;;;;;;;2.92;0.70;;;34.10;46.30;;;;;;5070354;28;20040;-76
2022/06/17 11:15:45;;;;;;;2.30;0.63;;;34.30;46.10;;;;;;5082487;28;20035;-76
2022/06/17 11:18:21;;;;;;;3.45;0.73;;;34.50;45.50;;;;;;5057861;28;20044;-75
2022/06/17 11:21:06;;;;;;;2.08;0.60;;;34.70;45.90;;;;;;5062884;28;20440;-75
2022/06/17 11:23:41;;;;;;;3.90;0.60;;;34.90;45.60;;;;;;5084526;28;20059;-75
2022/06/17 11:26:26;;;;;;;2.30;0.70;;;35.20;45.20;;;;;;5068670;28;20037;-76
2022/06/17 11:28:57;;;;;;;4.30;0.60;;;35.60;44.50;;;;;;5076518;28;20368;-76
2022/06/17 11:31:24;;;;;;;2.13;0.70;;;35.70;44.30;;;;;;5060378;28;20131;-76
2022/06/17 11:33:53;;;;;;;2.95;0.60;;;35.80;44.10;;;;;;5062309;28;20025;-76
2022/06/17 11:36:23;;;;;;;2.28;0.75;;;35.90;44.30;;;;;;5058578;28;20033;-76
2022/06/17 11:38:52;;;;;;;2.15;0.77;;;35.90;43.60;;;;;;5056691;28;20456;-76
2022/06/17 11:41:23;;;;;;;2.03;0.52;;;36.10;43.50;;;;;;5064799;28;20468;-75
2022/06/17 11:43:54;;;;;;;;;;;36.40;43.20;;;;;;5082767;28;20028;-76
2022/06/17 11:46:29;;;;;;;3.92;0.70;;;36.70;42.90;;;;;;5040835;28;19909;-76
2022/06/17 11:49:13;;;;;;;2.60;0.70;;;37.00;42.40;;;;;;5064616;28;20032;-77
2022/06/17 11:51:47;;;;;;;2.17;0.50;;;37.10;42.00;;;;;;5077602;28;20475;-76
2022/06/17 11:54:32;;;;;;;4.63;0.68;;;37.30;42.00;;;;;;5059744;28;20480;-76
2022/06/17 11:57:12;;;;;;;1.67;0.50;;;37.20;41.30;;;;;;5060728;28;20036;-77
2022/06/17 11:59:45;;;;;;;2.40;0.57;;;37.10;41.00;;;;;;5071257;28;20048;-77
2022/06/17 12:02:13;;;;;;;2.13;0.70;;;37.30;41.20;;;;;;5060277;28;20032;-78
2022/06/17 12:05:09;;;;;;;2.40;1.60;;;37.40;40.70;;;;;;5067437;28;20044;-77
2022/06/17 12:07:38;;;;;;;4.13;0.90;;;37.70;40.50;;;;;;5062370;28;20044;-77
2022/06/17 12:10:36;;;;;;;4.00;1.00;;;37.90;40.30;;;;;;5060959;28;20056;-78
2022/06/17 12:13:23;;;;;;;2.58;0.57;;;38.30;40.50;;;;;;5062131;28;20028;-77
2022/06/17 12:16:08;;;;;;;2.83;0.60;;;38.60;39.80;;;;;;5062096;28;20024;-76
2022/06/17 12:18:40;;;;;;;3.22;0.60;;;38.90;39.50;;;;;;5066102;28;20480;-76
2022/06/17 12:21:44;;;;;;;1.80;0.60;;;39.30;38.80;;;;;;5066646;28;20025;-78
2022/06/17 12:24:27;;;;;;;2.78;0.80;;;39.60;38.60;;;;;;5060052;28;20028;-77
2022/06/17 12:27:07;;;;;;;2.10;0.73;;;39.90;38.10;;;;;;5065488;28;20412;-77
2022/06/17 12:29:47;;;;;;;2.45;0.60;;;40.00;37.40;;;;;;5046910;28;20047;-78
2022/06/17 12:32:22;;;;;;;3.83;0.60;;;40.20;37.50;;;;;;5058801;28;20424;-77
2022/06/17 12:35:12;;;;;;;3.45;0.70;;;40.50;37.20;;;;;;5056388;28;20036;-78
2022/06/17 12:37:58;;;;;;;3.85;0.60;;;40.80;36.50;;;;;;5042681;28;20032;-77
2022/06/17 12:40:49;;;;;;;1.45;0.70;;;41.00;36.10;;;;;;5060405;28;20037;-77
2022/06/17 12:43:31;;;;;;;2.92;0.98;;;41.10;35.50;;;;;;5060943;28;20038;-78
2022/06/17 12:46:04;;;;;;;3.70;0.80;;;41.10;35.40;;;;;;5061056;28;20471;-78
2022/06/17 12:48:49;;;;;;;3.53;0.70;;;41.00;36.00;;;;;;5040017;28;20038;-77
2022/06/17 12:54:52;;;;;;;4.05;0.80;;;41.20;35.90;;;;;;5056501;28;20480;-78
2022/06/17 12:57:40;;;;;;;2.58;0.80;;;41.50;35.70;;;;;;5055597;28;20041;-78
2022/06/17 13:00:22;;;;;;;1.88;0.70;;;41.60;35.70;;;;;;5060142;28;20047;-78
2022/06/17 13:03:39;;;;;;;1.48;0.80;;;41.80;35.80;;;;;;5058750;28;20060;-78
2022/06/17 13:06:38;;;;;;;1.88;1.00;;;41.80;35.10;;;;;;5035521;28;20395;-78
2022/06/17 13:09:36;;;;;;;3.05;1.10;;;41.90;35.20;;;;;;5040863;28;20033;-78
2022/06/17 13:12:16;;;;;;;3.45;1.00;;;41.70;34.30;;;;;;5062375;28;20028;-78
2022/06/17 13:15:09;;;;;;;3.50;0.90;;;41.30;34.90;;;;;;5080687;28;20025;-78
2022/06/17 13:17:36;;;;;;;2.60;0.98;;;41.30;34.80;;;;;;5034185;28;20271;-78
2022/06/17 13:20:36;;;;;;;2.25;0.77;;;41.60;34.50;;;;;;5057773;28;20029;-78
2022/06/17 13:23:23;;;;;;;7.35;0.98;;;42.00;34.70;;;;;;5058719;28;20041;-78
2022/06/17 13:26:10;;;;;;;2.60;0.70;;;42.50;34.30;;;;;;5056505;28;20036;-78
2022/06/17 13:29:01;;;;;;;4.10;0.80;;;42.80;33.90;;;;;;5028909;28;20051;-78
2022/06/17 13:31:38;;;;;;;2.33;0.90;;;42.60;33.80;;;;;;5024803;28;20049;-79
2022/06/17 13:34:23;;;;;;;2.33;1.20;;;42.60;33.80;;;;;;5075160;28;20045;-78
2022/06/17 13:37:12;;;;;;;3.78;1.63;;;42.60;33.80;;;;;;5039515;28;20047;-78
2022/06/17 13:39:45;;;;;;;4.97;1.58;;;42.40;33.80;;;;;;5078056;28;20559;-78
2022/06/17 13:42:15;;;;;;;1.85;1.17;;;42.40;33.80;;;;;;5040625;28;20376;-78
2022/06/17 13:45:02;;;;;;;2.90;1.27;;;42.70;33.80;;;;;;5039954;28;20037;-78
2022/06/17 13:47:55;;;;;;;2.50;1.00;;;43.10;34.00;;;;;;5056789;28;20040;-77
2022/06/17 13:50:41;;;;;;;2.70;1.00;;;43.50;34.00;;;;;;5045528;28;20397;-77
2022/06/17 13:53:19;;;;;;;4.20;0.80;;;43.40;34.30;;;;;;5041718;28;20411;-77
2022/06/17 13:56:20;;;;;;;8.98;8.07;;;43.50;34.30;;;;;;5060405;28;20380;-77